Time;durP1;ratioP1;P1;durP2;ratioP2;P2;SDS_P1;SDS_P2;PMS_P1;PMS_P2;Temp;Humidity;BMP_temperature;BMP_pressure;BME280_temperature;BME280_humidity;BME280_pressure;Samples;Min_cycle;Max_cycle;Signal;HPM_P1;HPM_P2
2023/02/28 00:01:45;;;;;;;3.53;1.45;;;-2.20;99.90;;;;;;8375795;28;20025;-79
2023/02/28 00:05:45;;;;;;;1.77;0.98;;;-2.20;99.90;;;;;;8377612;28;20032;-79
2023/02/28 00:09:46;;;;;;;1.50;1.35;;;-2.20;99.90;;;;;;8373704;28;20035;-79
2023/02/28 00:13:47;;;;;;;2.85;1.60;;;-2.30;99.90;;;;;;8370581;28;20038;-79
2023/02/28 00:17:48;;;;;;;1.33;0.85;;;-2.20;99.90;;;;;;8373416;28;20635;-79
2023/02/28 00:21:49;;;;;;;0.70;0.68;;;-2.10;99.90;;;;;;8379323;28;20044;-79
2023/02/28 00:25:50;;;;;;;1.45;0.93;;;-2.10;99.90;;;;;;8378827;28;20024;-79
2023/02/28 00:29:51;;;;;;;0.30;0.30;;;-2.10;99.90;;;;;;8395507;28;20021;-78
2023/02/28 00:33:51;;;;;;;1.77;1.33;;;-2.10;99.90;;;;;;8378904;28;20017;-79
2023/02/28 00:37:52;;;;;;;0.60;0.47;;;-2.10;99.90;;;;;;8379233;28;20035;-78
2023/02/28 00:41:52;;;;;;;1.13;0.90;;;-2.10;99.90;;;;;;8370843;28;20104;-77
2023/02/28 00:45:53;;;;;;;0.30;0.30;;;-2.10;99.90;;;;;;8386053;28;20027;-79
2023/02/28 00:49:53;;;;;;;2.30;1.10;;;-2.10;99.90;;;;;;8364535;28;20059;-79
2023/02/28 00:53:54;;;;;;;0.30;0.30;;;-2.00;99.90;;;;;;8362708;28;20024;-79
2023/02/28 00:57:55;;;;;;;1.60;1.17;;;-2.00;99.90;;;;;;8365972;28;20020;-79
2023/02/28 01:01:55;;;;;;;2.38;1.00;;;-2.00;99.90;;;;;;8369915;28;20043;-79
2023/02/28 01:05:56;;;;;;;1.20;0.65;;;-2.00;99.90;;;;;;8372843;28;20401;-79
2023/02/28 01:09:56;;;;;;;2.55;1.38;;;-2.00;99.90;;;;;;8366893;28;20078;-79
2023/02/28 01:13:57;;;;;;;1.85;0.95;;;-2.10;99.90;;;;;;8368650;28;20073;-80
2023/02/28 01:17:58;;;;;;;1.98;1.17;;;-2.00;99.90;;;;;;8394570;28;20538;-78
2023/02/28 01:22:04;;;;;;;2.15;1.27;;;-1.90;99.90;;;;;;8380139;28;20017;-79
2023/02/28 01:26:12;;;;;;;1.25;0.88;;;-2.00;99.90;;;;;;8395928;28;20036;-78
2023/02/28 01:30:14;;;;;;;2.33;1.13;;;-1.90;99.90;;;;;;8388897;28;20094;-79
2023/02/28 01:34:14;;;;;;;1.35;0.90;;;-1.90;99.90;;;;;;8395509;28;20024;-79
2023/02/28 01:38:15;;;;;;;1.33;0.73;;;-1.90;99.90;;;;;;8370574;28;20061;-79
2023/02/28 01:42:16;;;;;;;6.50;1.08;;;-1.90;99.90;;;;;;8365726;28;20021;-79
2023/02/28 01:46:16;;;;;;;2.47;1.33;;;-1.90;99.90;;;;;;8357964;28;20017;-79
2023/02/28 01:50:22;;;;;;;3.28;1.48;;;-1.90;99.90;;;;;;8374744;28;20024;-79
2023/02/28 01:54:26;;;;;;;0.80;0.80;;;-1.90;99.90;;;;;;8374989;28;20052;-79
2023/02/28 01:58:26;;;;;;;1.50;1.05;;;-1.90;99.90;;;;;;8370910;28;20027;-77
2023/02/28 02:02:28;;;;;;;3.35;1.55;;;-1.90;99.90;;;;;;8364946;28;20021;-79
2023/02/28 02:06:40;;;;;;;1.85;0.70;;;-1.90;99.90;;;;;;8392501;28;20025;-77
2023/02/28 02:10:56;;;;;;;1.65;1.40;;;-1.90;99.90;;;;;;8360089;28;20688;-79
2023/02/28 02:15:16;;;;;;;3.15;0.98;;;-1.80;99.90;;;;;;8353982;28;20017;-79
2023/02/28 02:19:32;;;;;;;2.55;1.30;;;-1.80;99.90;;;;;;8399179;28;20032;-79
2023/02/28 02:23:54;;;;;;;3.25;2.05;;;-1.80;99.90;;;;;;8378017;28;20028;-79
2023/02/28 02:28:29;;;;;;;2.47;1.15;;;-1.80;99.90;;;;;;8382462;28;20029;-79
2023/02/28 02:32:48;;;;;;;1.08;0.98;;;-1.80;99.90;;;;;;8374551;28;20070;-79
2023/02/28 02:36:58;;;;;;;0.80;0.70;;;-1.90;99.90;;;;;;8381520;28;20031;-79
2023/02/28 02:41:34;;;;;;;2.47;1.25;;;-1.80;99.90;;;;;;8391761;28;20017;-80
2023/02/28 02:45:43;;;;;;;2.05;1.13;;;-1.70;99.90;;;;;;8376229;28;20021;-79
2023/02/28 02:49:49;;;;;;;1.63;0.88;;;-1.70;99.90;;;;;;8387272;28;20052;-79
2023/02/28 02:53:58;;;;;;;3.88;1.98;;;-1.70;99.90;;;;;;8381252;28;20021;-78
2023/02/28 02:58:13;;;;;;;6.07;1.95;;;-1.70;99.90;;;;;;8379715;28;20048;-79
2023/02/28 03:02:17;;;;;;;2.88;1.88;;;-1.80;99.90;;;;;;8379472;28;20074;-80
2023/02/28 03:06:20;;;;;;;3.90;2.08;;;-1.80;99.90;;;;;;8380695;28;20127;-80
2023/02/28 03:10:42;;;;;;;3.95;1.85;;;-1.80;99.90;;;;;;8375673;28;20550;-79
2023/02/28 03:15:15;;;;;;;3.33;2.03;;;-1.80;99.90;;;;;;8384760;28;20028;-80
2023/02/28 03:19:21;;;;;;;4.18;2.22;;;-1.90;99.90;;;;;;8396663;28;20408;-79
2023/02/28 03:23:44;;;;;;;3.08;2.20;;;-1.80;99.90;;;;;;8376065;28;20021;-78
2023/02/28 03:27:53;;;;;;;3.53;1.80;;;-1.80;99.90;;;;;;8369288;28;20037;-80
2023/02/28 03:32:21;;;;;;;1.92;1.13;;;-1.80;99.90;;;;;;8379838;28;20530;-79
2023/02/28 03:36:43;;;;;;;6.03;2.42;;;-1.80;99.90;;;;;;8363311;28;20039;-78
2023/02/28 03:41:03;;;;;;;2.65;1.60;;;-1.90;99.90;;;;;;8373038;28;20408;-78
2023/02/28 03:45:10;;;;;;;12.25;2.45;;;-1.80;99.90;;;;;;8371035;28;20075;-79
2023/02/28 03:49:24;;;;;;;2.30;1.60;;;-1.70;99.90;;;;;;8384254;28;20044;-79
2023/02/28 03:53:38;;;;;;;4.68;1.40;;;-1.90;99.90;;;;;;8366090;28;20012;-79
2023/02/28 03:57:45;;;;;;;2.80;1.48;;;-1.90;99.90;;;;;;8373508;28;20069;-79
2023/02/28 04:01:48;;;;;;;3.17;1.67;;;-1.90;99.90;;;;;;8361258;28;20020;-79
2023/02/28 04:05:54;;;;;;;3.13;1.35;;;-1.80;99.90;;;;;;8331722;23;20034;-79
2023/02/28 04:09:55;;;;;;;3.63;1.73;;;-1.90;99.90;;;;;;8318268;28;20049;-79
2023/02/28 04:13:55;;;;;;;1.05;0.90;;;-1.90;99.90;;;;;;8353832;23;20069;-79
2023/02/28 04:17:56;;;;;;;2.88;1.40;;;-1.90;99.90;;;;;;8355190;28;20064;-79
2023/02/28 04:21:56;;;;;;;1.65;1.45;;;-1.80;99.90;;;;;;8345093;28;20017;-78
2023/02/28 04:25:57;;;;;;;3.08;1.48;;;-1.90;99.90;;;;;;8344620;28;20021;-79
2023/02/28 04:29:57;;;;;;;2.22;1.55;;;-1.90;99.90;;;;;;8362641;28;20056;-79
2023/02/28 04:33:58;;;;;;;4.88;2.42;;;-2.00;99.90;;;;;;8345022;28;20524;-79
2023/02/28 04:37:59;;;;;;;5.22;2.10;;;-2.00;99.90;;;;;;8344572;28;20120;-79
2023/02/28 04:41:59;;;;;;;3.42;1.63;;;-2.00;99.90;;;;;;8326966;28;20385;-78
2023/02/28 04:46:03;;;;;;;3.83;2.28;;;-2.10;99.90;;;;;;8291663;28;20502;-79
2023/02/28 04:50:03;;;;;;;2.53;1.77;;;-2.00;99.90;;;;;;8326807;28;20186;-77
2023/02/28 04:54:04;;;;;;;4.57;2.75;;;-2.10;99.90;;;;;;8340142;28;20481;-79
2023/02/28 04:58:05;;;;;;;4.70;3.13;;;-2.00;99.90;;;;;;8327057;28;20098;-79
2023/02/28 05:02:06;;;;;;;5.70;2.92;;;-2.10;99.90;;;;;;8356943;28;20389;-79
2023/02/28 05:06:07;;;;;;;6.55;3.67;;;-2.10;99.90;;;;;;8339760;28;20413;-79
2023/02/28 05:10:09;;;;;;;3.15;2.60;;;-2.20;99.90;;;;;;8339395;28;20017;-78
2023/02/28 05:14:13;;;;;;;3.47;2.22;;;-2.20;99.90;;;;;;8340356;28;20037;-78
2023/02/28 05:18:14;;;;;;;3.53;2.13;;;-2.20;99.90;;;;;;8321972;28;20374;-80
2023/02/28 05:22:18;;;;;;;3.55;1.48;;;-2.20;99.90;;;;;;8336384;28;20009;-79
2023/02/28 05:26:19;;;;;;;5.55;3.25;;;-2.20;99.90;;;;;;8327611;28;20084;-79
2023/02/28 05:30:20;;;;;;;6.20;2.67;;;-2.10;99.90;;;;;;8330213;28;20061;-79
2023/02/28 05:34:20;;;;;;;4.90;2.55;;;-2.10;99.90;;;;;;8339482;28;20036;-79
2023/02/28 05:38:21;;;;;;;4.70;1.45;;;-2.10;99.90;;;;;;8347324;28;20040;-79
2023/02/28 05:42:21;;;;;;;5.13;3.30;;;-2.20;99.90;;;;;;8328087;28;20412;-79
2023/02/28 05:46:22;;;;;;;6.43;2.38;;;-2.10;99.90;;;;;;8318796;28;20020;-79
2023/02/28 05:50:22;;;;;;;6.55;3.30;;;-2.10;99.90;;;;;;8345287;28;20029;-79
2023/02/28 05:54:23;;;;;;;5.40;2.75;;;-2.10;99.90;;;;;;8359482;28;20021;-79
2023/02/28 05:58:28;;;;;;;3.88;2.22;;;-2.20;99.90;;;;;;8338401;28;20573;-79
2023/02/28 06:02:29;;;;;;;4.70;3.10;;;-2.20;99.90;;;;;;8355390;28;20013;-78
2023/02/28 06:06:30;;;;;;;1.83;1.20;;;-2.10;99.90;;;;;;8339495;28;20029;-79
2023/02/28 06:10:30;;;;;;;7.55;4.50;;;-2.00;99.90;;;;;;8347672;28;20124;-79
2023/02/28 06:14:32;;;;;;;1.45;1.33;;;-2.10;99.90;;;;;;8345677;28;20059;-78
2023/02/28 06:18:33;;;;;;;8.48;3.42;;;-2.00;99.90;;;;;;8344827;28;20028;-79
2023/02/28 06:22:37;;;;;;;3.67;2.15;;;-2.00;99.90;;;;;;8348180;28;20044;-78
2023/02/28 06:26:38;;;;;;;3.38;2.20;;;-2.00;99.90;;;;;;8347850;28;20063;-79
2023/02/28 06:30:39;;;;;;;9.95;4.00;;;-1.90;99.90;;;;;;8348419;28;20033;-80
2023/02/28 06:34:39;;;;;;;8.88;5.20;;;-1.90;99.90;;;;;;8348164;28;20067;-79
2023/02/28 06:38:40;;;;;;;5.07;1.75;;;-1.90;99.90;;;;;;8347760;28;20045;-79
2023/02/28 06:42:41;;;;;;;5.75;2.10;;;-1.90;99.90;;;;;;8343527;28;20048;-79
2023/02/28 06:46:43;;;;;;;6.28;2.78;;;-1.80;99.90;;;;;;8358227;28;20035;-80
2023/02/28 06:50:44;;;;;;;6.55;2.70;;;-2.00;99.90;;;;;;8353508;28;20032;-79
2023/02/28 06:54:44;;;;;;;6.68;3.83;;;-1.90;99.90;;;;;;8364760;28;20100;-78
2023/02/28 06:58:50;;;;;;;1.23;1.13;;;-1.90;99.90;;;;;;8345610;28;20052;-79
2023/02/28 07:02:51;;;;;;;7.38;3.15;;;-1.80;99.90;;;;;;8346490;28;20024;-79
2023/02/28 07:06:51;;;;;;;7.25;4.97;;;-1.80;99.90;;;;;;8346984;28;20435;-79
2023/02/28 07:10:53;;;;;;;4.10;2.20;;;-1.80;99.90;;;;;;8341118;28;20098;-78
2023/02/28 07:14:55;;;;;;;7.57;3.40;;;-1.80;99.90;;;;;;8346394;28;20523;-79
2023/02/28 07:18:56;;;;;;;6.95;3.47;;;-1.70;99.90;;;;;;8339807;28;20489;-79
2023/02/28 07:22:56;;;;;;;4.30;2.58;;;-1.80;99.90;;;;;;8346939;28;20067;-79
2023/02/28 07:26:57;;;;;;;4.22;2.95;;;-1.80;99.90;;;;;;8345490;28;20029;-78
2023/02/28 07:31:04;;;;;;;6.72;3.55;;;-1.80;99.90;;;;;;8346934;28;20109;-80
2023/02/28 07:35:05;;;;;;;5.93;2.97;;;-1.70;99.90;;;;;;8346792;28;20025;-79
2023/02/28 07:39:06;;;;;;;7.00;2.65;;;-1.70;99.90;;;;;;8345890;28;20017;-79
2023/02/28 07:43:06;;;;;;;7.88;4.60;;;-1.60;99.90;;;;;;8342115;28;20043;-79
2023/02/28 07:47:08;;;;;;;6.70;4.03;;;-1.50;99.90;;;;;;8335105;28;20028;-78
2023/02/28 07:51:09;;;;;;;9.05;3.25;;;-1.30;99.90;;;;;;8343392;28;20055;-79
2023/02/28 07:55:10;;;;;;;7.45;3.55;;;-1.20;99.90;;;;;;8342910;28;20029;-80
2023/02/28 07:59:11;;;;;;;6.05;3.85;;;-1.30;99.90;;;;;;8344977;28;20047;-79
2023/02/28 08:03:12;;;;;;;6.82;3.50;;;-1.40;99.90;;;;;;8345048;28;20013;-78
2023/02/28 08:07:13;;;;;;;2.58;1.88;;;-1.30;99.90;;;;;;8344385;28;20096;-79
2023/02/28 08:11:14;;;;;;;7.75;3.80;;;-1.30;99.90;;;;;;8344364;28;20426;-79
2023/02/28 08:15:15;;;;;;;7.38;3.13;;;-1.30;99.90;;;;;;8340490;28;20025;-79
2023/02/28 08:19:16;;;;;;;10.45;3.78;;;-1.20;99.90;;;;;;8361198;28;20013;-78
2023/02/28 08:23:16;;;;;;;11.35;5.55;;;-1.20;99.90;;;;;;8362444;28;20049;-79
2023/02/28 08:27:17;;;;;;;10.15;3.95;;;-1.20;99.90;;;;;;8343967;28;20025;-79
2023/02/28 08:31:18;;;;;;;8.32;4.50;;;-1.20;99.90;;;;;;8344035;28;20443;-79
2023/02/28 08:35:19;;;;;;;8.02;3.47;;;-1.20;99.90;;;;;;8343873;28;20020;-78
2023/02/28 08:39:20;;;;;;;8.73;4.55;;;-1.30;99.90;;;;;;8342944;28;20067;-79
2023/02/28 08:43:20;;;;;;;12.55;5.10;;;-1.30;99.90;;;;;;8340662;28;20059;-79
2023/02/28 08:47:21;;;;;;;2.90;1.27;;;-0.90;99.90;;;;;;8332861;28;20052;-79
2023/02/28 08:51:26;;;;;;;7.45;3.78;;;-0.90;99.90;;;;;;8343114;28;20016;-79
2023/02/28 08:55:27;;;;;;;5.05;2.83;;;-0.80;99.90;;;;;;8341710;28;20045;-79
2023/02/28 08:59:28;;;;;;;5.60;3.20;;;-0.80;99.90;;;;;;8343164;28;20016;-79
2023/02/28 09:03:29;;;;;;;5.43;3.28;;;-0.80;99.90;;;;;;8339216;28;20062;-79
2023/02/28 09:07:29;;;;;;;10.48;5.75;;;-0.70;99.90;;;;;;8343247;28;20033;-79
2023/02/28 09:11:30;;;;;;;8.50;3.70;;;-0.70;99.90;;;;;;8342934;28;20272;-79
2023/02/28 09:15:30;;;;;;;5.50;2.83;;;-0.60;99.90;;;;;;8356801;28;20036;-78
2023/02/28 09:19:31;;;;;;;6.90;3.65;;;-0.60;99.90;;;;;;8343153;28;20013;-79
2023/02/28 09:23:32;;;;;;;2.50;1.80;;;-0.80;99.90;;;;;;8342801;28;20071;-79
2023/02/28 09:27:32;;;;;;;8.95;4.13;;;-0.90;99.90;;;;;;8360687;28;20037;-79
2023/02/28 09:31:33;;;;;;;8.05;4.55;;;-1.10;99.90;;;;;;8343770;28;20029;-76
2023/02/28 09:35:33;;;;;;;8.50;5.43;;;-1.10;99.90;;;;;;8343277;28;20405;-79
2023/02/28 09:39:34;;;;;;;5.70;3.42;;;-0.80;99.90;;;;;;8340706;28;20029;-79
2023/02/28 09:43:38;;;;;;;8.45;4.70;;;-0.80;99.90;;;;;;8353416;28;20021;-79
2023/02/28 09:47:46;;;;;;;12.57;4.70;;;-0.90;99.90;;;;;;8335156;28;20043;-79
2023/02/28 09:52:10;;;;;;;9.32;5.38;;;-0.90;99.90;;;;;;8329517;28;20112;-78
2023/02/28 09:56:18;;;;;;;7.22;2.95;;;-0.90;99.90;;;;;;8355380;28;20506;-79
2023/02/28 10:00:23;;;;;;;7.38;4.13;;;-0.70;99.90;;;;;;8359159;28;20024;-79
2023/02/28 10:04:39;;;;;;;10.93;5.97;;;-0.40;99.90;;;;;;8342392;28;20018;-79
2023/02/28 10:08:59;;;;;;;9.52;3.72;;;-0.20;99.90;;;;;;8359382;28;20102;-79
2023/02/28 10:13:04;;;;;;;6.30;3.75;;;-0.10;99.90;;;;;;8334671;28;20137;-79
2023/02/28 10:17:13;;;;;;;9.60;4.78;;;0.00;99.90;;;;;;8353288;28;20056;-79
2023/02/28 10:21:27;;;;;;;9.47;4.00;;;-0.30;99.90;;;;;;8343014;28;20607;-79
2023/02/28 10:25:29;;;;;;;7.75;4.63;;;-0.10;99.90;;;;;;8342907;28;20333;-78
2023/02/28 10:29:32;;;;;;;9.23;4.88;;;-0.20;99.90;;;;;;8361103;28;20650;-79
2023/02/28 10:33:34;;;;;;;12.75;5.05;;;0.00;99.90;;;;;;8345869;28;20507;-79
2023/02/28 10:37:40;;;;;;;8.90;4.30;;;0.20;99.90;;;;;;8348804;28;20024;-80
2023/02/28 10:41:43;;;;;;;13.98;6.28;;;0.00;99.90;;;;;;8344618;28;20581;-80
2023/02/28 10:45:52;;;;;;;11.77;4.22;;;0.30;99.90;;;;;;8341675;28;20148;-79
2023/02/28 10:49:53;;;;;;;6.78;3.40;;;0.50;99.90;;;;;;8366759;28;20021;-80
2023/02/28 10:53:55;;;;;;;7.88;4.10;;;0.50;99.90;;;;;;8363336;28;20021;-80
2023/02/28 10:57:56;;;;;;;9.57;5.35;;;0.60;99.90;;;;;;8348235;28;20089;-79
2023/02/28 11:01:57;;;;;;;10.75;4.45;;;0.10;99.90;;;;;;8365926;28;20508;-80
2023/02/28 11:05:58;;;;;;;10.63;4.50;;;0.00;99.90;;;;;;8365299;28;20096;-80
2023/02/28 11:09:59;;;;;;;10.00;5.07;;;0.20;99.90;;;;;;8347256;28;20025;-80
2023/02/28 11:14:05;;;;;;;10.00;5.63;;;0.40;99.90;;;;;;8346713;28;20037;-79
2023/02/28 11:18:19;;;;;;;11.90;5.80;;;0.50;99.90;;;;;;8337675;28;20048;-79
2023/02/28 11:22:23;;;;;;;11.40;5.10;;;0.70;99.90;;;;;;8348280;28;20110;-80
2023/02/28 11:26:43;;;;;;;5.57;3.30;;;0.80;99.90;;;;;;8346301;28;20061;-79
2023/02/28 11:30:43;;;;;;;5.55;2.13;;;1.00;99.90;;;;;;8340460;28;20025;-79
2023/02/28 11:34:46;;;;;;;7.63;4.95;;;1.30;99.90;;;;;;8365551;28;20033;-79
2023/02/28 11:38:49;;;;;;;6.72;3.97;;;1.50;99.90;;;;;;8347683;28;20468;-80
2023/02/28 11:43:22;;;;;;;8.20;4.72;;;1.60;99.90;;;;;;8343494;28;20336;-79
2023/02/28 11:47:25;;;;;;;11.07;5.55;;;1.20;99.90;;;;;;8288886;28;20116;-80
2023/02/28 11:51:47;;;;;;;10.90;6.07;;;1.50;99.90;;;;;;8362710;28;20021;-79
2023/02/28 11:55:59;;;;;;;7.78;3.75;;;1.20;99.90;;;;;;8335956;28;20392;-79
2023/02/28 12:00:38;;;;;;;7.43;3.72;;;1.10;99.90;;;;;;8346219;28;20024;-79
2023/02/28 12:05:17;;;;;;;7.35;4.35;;;1.40;99.90;;;;;;8345949;28;20469;-79
2023/02/28 12:09:53;;;;;;;9.85;5.45;;;1.20;99.90;;;;;;8311694;28;20041;-79
2023/02/28 12:14:18;;;;;;;3.95;2.67;;;1.40;99.90;;;;;;8361720;28;20390;-79
2023/02/28 12:18:38;;;;;;;7.53;4.38;;;2.60;99.90;;;;;;8341650;28;20032;-79
2023/02/28 12:22:49;;;;;;;;;;;3.40;99.90;;;;;;8345681;28;20024;-79
2023/02/28 12:26:51;;;;;;;7.00;3.92;;;2.80;99.90;;;;;;8334686;28;19924;-80
2023/02/28 12:30:59;;;;;;;10.30;4.90;;;2.80;99.90;;;;;;8332270;28;20397;-79
2023/02/28 12:35:07;;;;;;;10.95;5.88;;;2.60;99.90;;;;;;8352439;28;20496;-79
2023/02/28 12:39:16;;;;;;;7.85;4.22;;;3.10;99.90;;;;;;8346255;28;20536;-79
2023/02/28 12:43:19;;;;;;;8.25;4.53;;;3.00;99.90;;;;;;8341315;28;20078;-79
2023/02/28 12:47:20;;;;;;;10.77;5.57;;;2.40;99.90;;;;;;8338966;28;20029;-78
2023/02/28 12:51:21;;;;;;;7.82;3.75;;;2.40;99.90;;;;;;8366935;28;20028;-78
2023/02/28 12:55:49;;;;;;;14.23;6.13;;;3.10;99.90;;;;;;8339759;28;20087;-79
2023/02/28 12:59:54;;;;;;;7.50;4.00;;;2.00;99.90;;;;;;8332325;28;20445;-79
2023/02/28 13:04:32;;;;;;;8.75;5.32;;;2.30;99.90;;;;;;8342957;28;20048;-79
2023/02/28 13:09:03;;;;;;;6.50;3.30;;;2.80;99.90;;;;;;8337334;28;20021;-78
2023/02/28 13:13:04;;;;;;;7.82;4.20;;;2.80;99.90;;;;;;8331640;28;20025;-79
2023/02/28 13:17:08;;;;;;;8.85;4.75;;;3.10;99.90;;;;;;8338239;28;20116;-79
2023/02/28 13:21:29;;;;;;;10.57;4.93;;;4.50;99.90;;;;;;8342100;28;20017;-79
2023/02/28 13:25:33;;;;;;;4.30;2.67;;;4.60;99.90;;;;;;8342730;28;20021;-79
2023/02/28 13:29:40;;;;;;;9.98;5.60;;;5.10;99.90;;;;;;8359444;28;20091;-79
2023/02/28 13:33:48;;;;;;;10.23;5.80;;;5.80;99.90;;;;;;8342664;28;20417;-79
2023/02/28 13:37:50;;;;;;;6.40;3.08;;;5.00;99.90;;;;;;8360363;28;20028;-79
2023/02/28 13:41:50;;;;;;;11.85;6.60;;;4.40;99.90;;;;;;8331905;28;20025;-80
2023/02/28 13:46:09;;;;;;;10.95;4.90;;;5.10;99.90;;;;;;8327854;28;20026;-79
2023/02/28 13:50:33;;;;;;;4.40;2.92;;;4.80;99.90;;;;;;8359704;28;20696;-80
2023/02/28 13:55:11;;;;;;;6.25;3.53;;;5.70;99.90;;;;;;8339495;28;20017;-79
2023/02/28 13:59:38;;;;;;;9.90;6.00;;;4.80;99.90;;;;;;8354452;28;20024;-80
2023/02/28 14:03:55;;;;;;;10.32;4.60;;;5.40;99.90;;;;;;8341032;28;20079;-77
2023/02/28 14:08:05;;;;;;;9.15;4.65;;;4.70;99.90;;;;;;8334495;28;20055;-79
2023/02/28 14:12:44;;;;;;;9.30;4.25;;;5.90;99.90;;;;;;8365604;28;20020;-79
2023/02/28 14:16:46;;;;;;;10.13;5.88;;;7.20;99.90;;;;;;8327313;28;20040;-78
2023/02/28 14:20:51;;;;;;;7.22;4.90;;;8.00;99.90;;;;;;8347998;28;20032;-79
2023/02/28 14:25:17;;;;;;;9.02;4.35;;;7.60;99.90;;;;;;8348201;28;20021;-79
2023/02/28 14:29:30;;;;;;;15.70;7.28;;;7.00;99.90;;;;;;8365846;28;20067;-78
2023/02/28 14:34:25;;;;;;;10.95;5.45;;;5.40;99.90;;;;;;8361861;28;20009;-77
2023/02/28 14:38:31;;;;;;;13.13;6.47;;;4.30;99.90;;;;;;8249221;28;20036;-80
2023/02/28 14:42:37;;;;;;;11.60;6.15;;;5.00;99.90;;;;;;8342809;28;20028;-79
2023/02/28 14:46:41;;;;;;;15.35;5.93;;;4.30;99.90;;;;;;8338331;28;20104;-79
2023/02/28 14:50:49;;;;;;;10.60;4.95;;;4.00;99.90;;;;;;8347141;28;20481;-80
2023/02/28 14:55:18;;;;;;;9.45;5.95;;;4.10;99.90;;;;;;8328170;28;20030;-79
2023/02/28 14:59:23;;;;;;;9.70;5.55;;;3.70;99.90;;;;;;8337439;28;20032;-82
2023/02/28 15:03:34;;;;;;;7.38;4.05;;;3.50;99.90;;;;;;8364981;28;20455;-82
2023/02/28 15:07:35;;;;;;;4.60;3.17;;;3.90;99.90;;;;;;8345039;28;20017;-82
2023/02/28 15:11:38;;;;;;;5.50;3.05;;;3.60;99.90;;;;;;8342473;28;20027;-83
2023/02/28 15:15:59;;;;;;;9.48;5.47;;;3.80;99.90;;;;;;8335805;28;20029;-89
2023/02/28 15:19:59;;;;;;;;;;;3.60;99.90;;;;;;8338079;28;20033;-88
2023/02/28 15:24:23;;;;;;;5.75;3.00;;;3.60;99.90;;;;;;8346411;28;20049;-87
2023/02/28 15:28:24;;;;;;;9.43;4.85;;;3.50;99.90;;;;;;8345739;28;20013;-87
2023/02/28 15:32:35;;;;;;;10.23;6.05;;;3.00;99.90;;;;;;8333897;28;20033;-84
2023/02/28 15:36:36;;;;;;;5.60;3.75;;;2.90;99.90;;;;;;8338698;28;20031;-84
2023/02/28 15:40:41;;;;;;;7.55;4.15;;;2.90;99.90;;;;;;8333751;28;20037;-84
2023/02/28 15:44:41;;;;;;;9.40;6.07;;;2.90;99.90;;;;;;8336229;28;20020;-84
2023/02/28 15:48:54;;;;;;;9.82;5.80;;;2.70;99.90;;;;;;8343878;28;20029;-84
2023/02/28 15:52:55;;;;;;;13.85;6.75;;;2.70;99.90;;;;;;8338931;28;20489;-84
2023/02/28 15:57:00;;;;;;;5.32;2.83;;;2.70;99.90;;;;;;8334017;28;20078;-84
2023/02/28 16:01:08;;;;;;;8.40;5.10;;;2.50;99.90;;;;;;8349031;28;20481;-84
2023/02/28 16:05:08;;;;;;;10.18;4.80;;;2.60;99.90;;;;;;8363859;28;20021;-82
2023/02/28 16:09:14;;;;;;;5.38;3.40;;;2.50;99.90;;;;;;8348926;28;20029;-84
2023/02/28 16:13:21;;;;;;;4.40;2.97;;;2.40;99.90;;;;;;8335410;28;20044;-85
2023/02/28 16:17:27;;;;;;;8.57;4.40;;;2.10;99.90;;;;;;8328296;28;20028;-85
2023/02/28 16:21:28;;;;;;;13.32;6.50;;;2.10;99.90;;;;;;8347985;28;20493;-85
2023/02/28 16:25:43;;;;;;;16.50;6.55;;;2.00;99.90;;;;;;8348418;28;20025;-86
2023/02/28 16:29:44;;;;;;;9.80;4.55;;;2.00;99.90;;;;;;8347874;28;20161;-85
2023/02/28 16:33:45;;;;;;;12.55;5.75;;;1.90;99.90;;;;;;8347138;28;20394;-84
2023/02/28 16:37:47;;;;;;;7.93;4.63;;;1.80;99.90;;;;;;8337090;28;20026;-84
2023/02/28 16:41:48;;;;;;;5.40;2.50;;;1.70;99.90;;;;;;8356479;28;20507;-84
2023/02/28 16:45:56;;;;;;;10.88;5.93;;;1.60;99.90;;;;;;8352210;28;20053;-85
2023/02/28 16:49:56;;;;;;;10.65;5.13;;;1.40;99.90;;;;;;8345554;28;20017;-83
2023/02/28 16:53:57;;;;;;;10.77;5.70;;;1.30;99.90;;;;;;8325196;28;20084;-85
2023/02/28 16:57:59;;;;;;;16.73;7.88;;;1.10;99.90;;;;;;8339061;28;20056;-84
2023/02/28 17:02:00;;;;;;;12.43;4.97;;;1.00;99.90;;;;;;8318930;28;20034;-84
2023/02/28 17:06:01;;;;;;;19.42;9.60;;;0.90;99.90;;;;;;8319617;28;20116;-84
2023/02/28 17:10:08;;;;;;;12.77;6.35;;;0.80;99.90;;;;;;8338496;28;20049;-85
2023/02/28 17:14:08;;;;;;;4.93;3.42;;;0.60;99.90;;;;;;8333243;28;20068;-84
2023/02/28 17:18:15;;;;;;;9.27;5.43;;;0.40;99.90;;;;;;8335622;28;20029;-85
2023/02/28 17:22:16;;;;;;;14.00;6.22;;;0.30;99.90;;;;;;8333319;28;20029;-85
2023/02/28 17:26:22;;;;;;;10.45;4.82;;;0.00;99.90;;;;;;8343993;28;20508;-84
2023/02/28 17:30:26;;;;;;;11.25;5.43;;;-0.20;99.90;;;;;;8363852;28;20013;-85
2023/02/28 17:34:27;;;;;;;7.70;4.53;;;-0.40;99.90;;;;;;8346338;28;20055;-85
2023/02/28 17:38:29;;;;;;;13.73;5.85;;;-0.80;99.90;;;;;;8346898;28;20017;-85
2023/02/28 17:42:29;;;;;;;11.77;5.10;;;-0.90;99.90;;;;;;8336177;28;20017;-85
2023/02/28 17:46:30;;;;;;;9.20;5.93;;;-0.90;99.90;;;;;;8340210;28;20469;-85
2023/02/28 17:50:31;;;;;;;9.90;5.32;;;-1.10;99.90;;;;;;8362166;28;20497;-86
2023/02/28 17:54:32;;;;;;;10.57;5.72;;;-1.00;99.90;;;;;;8342581;28;20033;-85
2023/02/28 17:58:32;;;;;;;13.45;5.45;;;-1.10;99.90;;;;;;8357778;28;20097;-82
2023/02/28 18:02:33;;;;;;;12.63;5.78;;;-1.40;99.90;;;;;;8307062;28;20060;-82
2023/02/28 18:06:45;;;;;;;8.90;4.80;;;-1.50;99.90;;;;;;8297688;28;20083;-80
2023/02/28 18:10:46;;;;;;;10.15;5.22;;;-1.60;99.90;;;;;;8292533;28;20421;-82
2023/02/28 18:14:47;;;;;;;12.13;5.85;;;-1.60;99.90;;;;;;8312608;28;20034;-80
2023/02/28 18:18:48;;;;;;;11.82;4.80;;;-1.70;99.90;;;;;;8303981;28;20049;-81
2023/02/28 18:22:49;;;;;;;11.02;4.75;;;-1.70;99.90;;;;;;8314304;28;20108;-80
2023/02/28 18:26:50;;;;;;;11.02;5.82;;;-1.70;99.90;;;;;;8314696;28;20468;-81
2023/02/28 18:30:50;;;;;;;10.40;4.75;;;-1.90;99.90;;;;;;8314808;28;20025;-80
2023/02/28 18:34:51;;;;;;;9.25;5.10;;;-2.00;99.90;;;;;;8313054;28;20132;-81
2023/02/28 18:38:52;;;;;;;15.57;6.15;;;-2.00;99.90;;;;;;8291954;28;20040;-81
2023/02/28 18:42:53;;;;;;;10.82;4.97;;;-2.00;99.90;;;;;;8312119;28;20044;-80
2023/02/28 18:46:54;;;;;;;10.05;5.50;;;-2.40;99.90;;;;;;8312669;28;20038;-80
2023/02/28 18:50:54;;;;;;;8.48;4.47;;;-2.70;99.90;;;;;;8291696;28;20029;-80
2023/02/28 18:54:55;;;;;;;12.43;5.22;;;-3.00;99.90;;;;;;8325100;22;20068;-81
2023/02/28 18:58:55;;;;;;;27.13;10.50;;;-3.00;99.90;;;;;;8387815;28;20183;-80
2023/02/28 19:02:56;;;;;;;22.67;10.20;;;-2.90;99.90;;;;;;8384824;28;20031;-81
2023/02/28 19:06:56;;;;;;;16.90;9.45;;;-2.90;99.90;;;;;;8367305;28;20130;-80
2023/02/28 19:10:57;;;;;;;15.68;8.82;;;-3.10;99.90;;;;;;8370298;28;20028;-80
2023/02/28 19:14:57;;;;;;;20.30;9.90;;;-3.20;99.90;;;;;;8403861;28;20487;-80
2023/02/28 19:18:58;;;;;;;19.45;9.70;;;-3.20;99.90;;;;;;8416739;28;20030;-80
2023/02/28 19:22:58;;;;;;;20.38;9.88;;;-3.30;99.90;;;;;;8416870;28;20043;-82
2023/02/28 19:26:59;;;;;;;18.40;10.07;;;-3.40;99.90;;;;;;8418302;28;20503;-81
2023/02/28 19:31:00;;;;;;;18.85;9.52;;;-3.40;99.90;;;;;;8387884;28;20025;-79
2023/02/28 19:35:01;;;;;;;18.40;9.07;;;-3.40;99.90;;;;;;8406583;28;20086;-81
2023/02/28 19:39:02;;;;;;;24.88;10.25;;;-3.60;99.90;;;;;;8406985;28;20644;-81
2023/02/28 19:43:02;;;;;;;15.98;7.78;;;-3.70;99.90;;;;;;8400879;28;20112;-79
2023/02/28 19:47:03;;;;;;;15.98;8.15;;;-3.80;99.90;;;;;;8398882;28;20048;-81
2023/02/28 19:51:07;;;;;;;17.05;7.63;;;-3.90;99.90;;;;;;8407604;28;20400;-79
2023/02/28 19:55:08;;;;;;;14.93;7.03;;;-3.90;99.90;;;;;;8418972;28;20094;-80
2023/02/28 19:59:09;;;;;;;21.98;8.25;;;-3.90;99.90;;;;;;8422509;28;20052;-78
2023/02/28 20:03:10;;;;;;;16.60;8.00;;;-4.00;99.90;;;;;;8419703;28;20380;-80
2023/02/28 20:07:10;;;;;;;11.90;6.75;;;-4.10;99.90;;;;;;8402632;28;20172;-81
2023/02/28 20:11:14;;;;;;;15.73;7.10;;;-4.10;99.90;;;;;;8413385;28;20020;-80
2023/02/28 20:15:15;;;;;;;15.68;7.60;;;-3.90;99.90;;;;;;8400224;28;21344;-80
2023/02/28 20:19:16;;;;;;;16.50;7.63;;;-3.70;99.90;;;;;;8388291;28;20028;-80
2023/02/28 20:23:17;;;;;;;12.20;6.82;;;-3.50;99.90;;;;;;8395579;28;20028;-81
2023/02/28 20:27:17;;;;;;;15.35;6.82;;;-3.30;99.90;;;;;;8421834;28;20035;-81
2023/02/28 20:31:24;;;;;;;15.05;7.53;;;-3.20;99.90;;;;;;8406006;28;20032;-81
2023/02/28 20:35:24;;;;;;;15.55;7.03;;;-3.20;99.90;;;;;;8418687;28;20038;-82
2023/02/28 20:39:25;;;;;;;10.43;5.53;;;-3.00;99.90;;;;;;8399447;28;20024;-81
2023/02/28 20:43:26;;;;;;;11.77;5.97;;;-2.90;99.90;;;;;;8411327;28;20085;-81
2023/02/28 20:47:27;;;;;;;13.50;6.25;;;-2.80;99.90;;;;;;8409605;28;20186;-81
2023/02/28 20:51:27;;;;;;;12.98;6.63;;;-2.50;99.90;;;;;;8417629;28;20032;-81
2023/02/28 20:55:28;;;;;;;8.85;5.60;;;-1.90;99.90;;;;;;8414412;28;20047;-81
2023/02/28 20:59:28;;;;;;;11.23;5.75;;;-1.80;99.90;;;;;;8426339;28;20041;-81
2023/02/28 21:03:29;;;;;;;10.30;5.28;;;-1.60;99.90;;;;;;8425871;28;20103;-81
2023/02/28 21:07:30;;;;;;;8.60;4.68;;;-1.70;99.90;;;;;;8425389;28;20024;-80
2023/02/28 21:11:33;;;;;;;10.07;4.75;;;-1.70;99.90;;;;;;8421977;28;20027;-81
2023/02/28 21:15:37;;;;;;;9.30;5.20;;;-1.60;99.90;;;;;;8413204;28;20595;-81
2023/02/28 21:19:40;;;;;;;11.07;5.20;;;-1.40;99.90;;;;;;8420796;28;20043;-81